Station History

Weather Underground - logo

Station Historical Data
Daily Summary for January 31, 2018 Units:  English    Metric   Both
« Previous Day
Next Day »
Daily Weekly Monthly Yearly Custom
  High: Low: Average:
Temperature: 67.6 °F 39.6 °F 51.5 °F
Dew Point: 54.6 °F 37.7 °F 46.3 °F
Humidity: 96 % 58 % 84 %
Wind Speed: 3.5 mph 0.0 mph 0.3 mph
Wind Gust: 3.5 mph - -
Wind:- - WSW
Pressure: 30.15 in 30.02 in -
Precipitation: 0.00 in    
Historical Graphs
 
 
Tabular Data for January 31, 2018
Time Temperature Dew Point Pressure Wind Wind Speed Wind Gust Humidity Rainfall Rate (Hourly)
00:04 45.1 °F 42.6 °F 30.10 in Calm     91 % 0.00 in
00:10 44.6 °F 41.8 °F 30.10 in Calm     90 % 0.00 in
00:15 44.2 °F 41.5 °F 30.10 in Calm     90 % 0.00 in
00:20 43.9 °F 41.4 °F 30.10 in Calm     91 % 0.00 in
00:25 43.8 °F 41.3 °F 30.10 in Calm     91 % 0.00 in
00:30 43.6 °F 41.1 °F 30.09 in Calm     91 % 0.00 in
00:35 43.2 °F 40.5 °F 30.09 in Calm     90 % 0.00 in
00:40 43.0 °F 40.6 °F 30.09 in Calm     91 % 0.00 in
00:45 42.9 °F 40.5 °F 30.09 in Calm     91 % 0.00 in
00:50 42.7 °F 40.3 °F 30.09 in Calm     91 % 0.00 in
00:55 42.5 °F 40.1 °F 30.09 in Calm     91 % 0.00 in
01:00 42.4 °F 40.2 °F 30.09 in Calm     92 % 0.00 in
01:05 42.6 °F 40.4 °F 30.09 in Calm     92 % 0.00 in
01:10 42.8 °F 40.9 °F 30.10 in Calm     93 % 0.00 in
01:15 42.8 °F 40.6 °F 30.10 in Calm     92 % 0.00 in
01:20 42.9 °F 41.0 °F 30.10 in Calm     93 % 0.00 in
01:25 43.0 °F 41.1 °F 30.10 in Calm     93 % 0.00 in
01:30 43.1 °F 41.2 °F 30.09 in Calm     93 % 0.00 in
01:35 43.1 °F 41.2 °F 30.10 in Calm     93 % 0.00 in
01:40 43.1 °F 41.2 °F 30.10 in Calm     93 % 0.00 in
01:45 43.1 °F 41.2 °F 30.10 in Calm     93 % 0.00 in
01:50 43.0 °F 41.1 °F 30.10 in Calm     93 % 0.00 in
01:55 43.0 °F 41.1 °F 30.10 in Calm     93 % 0.00 in
02:00 43.3 °F 41.7 °F 30.10 in Calm     94 % 0.00 in
02:05 43.4 °F 41.8 °F 30.10 in SSE 3.5 mph   94 % 0.00 in
02:10 43.3 °F 41.4 °F 30.10 in Calm     93 % 0.00 in
02:15 43.0 °F 41.1 °F 30.10 in Calm     93 % 0.00 in
02:20 42.7 °F 40.8 °F 30.10 in Calm     93 % 0.00 in
02:25 42.3 °F 40.1 °F 30.10 in Calm     92 % 0.00 in
02:30 42.2 °F 40.0 °F 30.10 in Calm     92 % 0.00 in
02:35 42.2 °F 40.3 °F 30.10 in Calm     93 % 0.00 in
02:40 42.2 °F 40.3 °F 30.10 in Calm     93 % 0.00 in
02:45 42.1 °F 40.2 °F 30.10 in Calm     93 % 0.00 in
02:50 41.8 °F 39.9 °F 30.10 in Calm     93 % 0.00 in
02:55 41.7 °F 39.8 °F 30.10 in Calm     93 % 0.00 in
03:00 41.8 °F 39.9 °F 30.10 in Calm     93 % 0.00 in
03:05 41.7 °F 39.8 °F 30.10 in Calm     93 % 0.00 in
03:10 41.6 °F 39.7 °F 30.10 in Calm     93 % 0.00 in
03:15 41.6 °F 39.7 °F 30.09 in Calm     93 % 0.00 in
03:20 41.5 °F 39.6 °F 30.10 in Calm     93 % 0.00 in
03:25 41.7 °F 39.8 °F 30.10 in Calm     93 % 0.00 in
03:30 41.3 °F 39.2 °F 30.10 in Calm     92 % 0.00 in
03:35 40.7 °F 38.3 °F 30.10 in Calm     91 % 0.00 in
03:41 40.6 °F 38.5 °F 30.10 in Calm     92 % 0.00 in
03:46 40.6 °F 38.5 °F 30.10 in Calm     92 % 0.00 in
03:51 40.6 °F 38.7 °F 30.10 in Calm     93 % 0.00 in
03:56 40.7 °F 38.8 °F 30.10 in Calm     93 % 0.00 in
04:01 40.7 °F 38.8 °F 30.10 in Calm     93 % 0.00 in
04:06 40.9 °F 39.3 °F 30.10 in Calm     94 % 0.00 in
04:11 40.8 °F 38.9 °F 30.10 in Calm     93 % 0.00 in
04:16 40.4 °F 38.5 °F 30.10 in Calm     93 % 0.00 in
04:21 40.4 °F 38.5 °F 30.10 in Calm     93 % 0.00 in
04:26 40.3 °F 38.4 °F 30.10 in Calm     93 % 0.00 in
04:31 40.0 °F 38.1 °F 30.10 in Calm     93 % 0.00 in
04:36 40.0 °F 38.1 °F 30.10 in Calm     93 % 0.00 in
04:41 40.0 °F 38.1 °F 30.10 in Calm     93 % 0.00 in
04:46 40.0 °F 38.1 °F 30.10 in Calm     93 % 0.00 in
04:51 39.9 °F 38.0 °F 30.10 in Calm     93 % 0.00 in
04:56 39.8 °F 37.9 °F 30.10 in Calm     93 % 0.00 in
05:01 39.7 °F 37.8 °F 30.10 in Calm     93 % 0.00 in
05:06 39.6 °F 37.7 °F 30.10 in Calm     93 % 0.00 in
05:11 39.7 °F 38.1 °F 30.10 in Calm     94 % 0.00 in
05:16 39.7 °F 38.1 °F 30.11 in Calm     94 % 0.00 in
05:21 39.8 °F 38.2 °F 30.11 in Calm     94 % 0.00 in
05:26 39.7 °F 38.1 °F 30.11 in Calm     94 % 0.00 in
05:31 39.8 °F 38.2 °F 30.11 in Calm     94 % 0.00 in
05:36 40.0 °F 38.4 °F 30.11 in Calm     94 % 0.00 in
05:41 40.1 °F 38.5 °F 30.11 in Calm     94 % 0.00 in
05:46 39.9 °F 38.3 °F 30.11 in Calm     94 % 0.00 in
05:51 39.7 °F 37.8 °F 30.11 in Calm     93 % 0.00 in
05:56 39.6 °F 37.7 °F 30.11 in Calm     93 % 0.00 in
06:01 40.0 °F 38.4 °F 30.11 in Calm     94 % 0.00 in
06:06 40.0 °F 38.4 °F 30.11 in Calm     94 % 0.00 in
06:11 40.0 °F 38.4 °F 30.11 in Calm     94 % 0.00 in
06:16 40.0 °F 38.4 °F 30.11 in Calm     94 % 0.00 in
06:21 40.0 °F 38.4 °F 30.12 in Calm     94 % 0.00 in
06:26 40.0 °F 38.7 °F 30.12 in Calm     95 % 0.00 in
06:31 40.0 °F 38.7 °F 30.12 in Calm     95 % 0.00 in
06:36 39.9 °F 38.6 °F 30.12 in Calm     95 % 0.00 in
06:41 39.8 °F 38.5 °F 30.12 in Calm     95 % 0.00 in
06:46 39.9 °F 38.6 °F 30.12 in Calm     95 % 0.00 in
06:51 39.9 °F 38.6 °F 30.13 in Calm     95 % 0.00 in
06:56 39.9 °F 38.6 °F 30.12 in Calm     95 % 0.00 in
07:01 40.2 °F 38.9 °F 30.13 in Calm     95 % 0.00 in
07:06 40.4 °F 39.1 °F 30.13 in Calm     95 % 0.00 in
07:11 40.4 °F 39.1 °F 30.13 in Calm     95 % 0.00 in
07:16 40.5 °F 39.2 °F 30.13 in Calm     95 % 0.00 in
07:21 40.6 °F 39.3 °F 30.13 in Calm     95 % 0.00 in
07:26 40.7 °F 39.4 °F 30.13 in Calm     95 % 0.00 in
07:31 40.8 °F 39.5 °F 30.13 in Calm     95 % 0.00 in
07:36 41.0 °F 39.9 °F 30.13 in Calm     96 % 0.00 in
07:41 41.3 °F 40.2 °F 30.13 in Calm     96 % 0.00 in
07:46 41.5 °F 40.4 °F 30.13 in Calm     96 % 0.00 in
07:51 41.7 °F 40.6 °F 30.13 in Calm     96 % 0.00 in
07:56 41.7 °F 40.6 °F 30.13 in Calm     96 % 0.00 in
08:01 41.7 °F 40.6 °F 30.13 in Calm     96 % 0.00 in
08:06 41.7 °F 40.6 °F 30.14 in Calm     96 % 0.00 in
08:11 41.8 °F 40.7 °F 30.14 in Calm     96 % 0.00 in
08:16 42.1 °F 41.0 °F 30.14 in Calm     96 % 0.00 in
08:21 42.3 °F 41.2 °F 30.14 in Calm     96 % 0.00 in
08:26 42.6 °F 41.5 °F 30.14 in Calm     96 % 0.00 in
08:31 43.3 °F 42.2 °F 30.15 in Calm     96 % 0.00 in
08:36 44.7 °F 43.6 °F 30.15 in Calm     96 % 0.00 in
08:41 45.7 °F 44.6 °F 30.15 in Calm     96 % 0.00 in
08:46 46.6 °F 45.5 °F 30.15 in Calm   0.1 mph 96 % 0.00 in
08:51 47.4 °F 46.3 °F 30.15 in Calm     96 % 0.00 in
08:56 47.8 °F 46.7 °F 30.15 in SSE 2.3 mph 2.3 mph 96 % 0.00 in
09:01 48.2 °F 47.1 °F 30.15 in Calm     96 % 0.00 in
09:06 48.7 °F 47.6 °F 30.15 in SE 2.3 mph 2.3 mph 96 % 0.00 in
09:11 49.2 °F 47.3 °F 30.15 in SSE 1.2 mph 1.2 mph 93 % 0.00 in
09:16 49.9 °F 48.0 °F 30.15 in Calm     93 % 0.00 in
09:21 50.6 °F 48.1 °F 30.15 in Calm     91 % 0.00 in
09:26 51.1 °F 48.3 °F 30.15 in South 1.0 mph 1.0 mph 90 % 0.00 in
09:31 51.7 °F 48.6 °F 30.15 in Calm     89 % 0.00 in
09:36 52.3 °F 48.9 °F 30.15 in ESE 1.2 mph 1.2 mph 88 % 0.00 in
09:41 52.8 °F 49.0 °F 30.15 in Calm     87 % 0.00 in
09:46 53.2 °F 49.4 °F 30.15 in Calm   0.1 mph 87 % 0.00 in
09:51 53.8 °F 49.4 °F 30.15 in SE 2.3 mph 2.3 mph 85 % 0.00 in
09:56 54.6 °F 49.9 °F 30.15 in South 1.2 mph   84 % 0.00 in
10:01 54.9 °F 49.8 °F 30.15 in SE 1.2 mph 1.2 mph 83 % 0.00 in
10:06 55.3 °F 49.9 °F 30.15 in SE 1.2 mph 1.2 mph 82 % 0.00 in
10:11 55.9 °F 50.2 °F 30.15 in Calm     81 % 0.00 in
10:16 56.6 °F 50.2 °F 30.15 in Calm     79 % 0.00 in
10:21 56.5 °F 49.7 °F 30.15 in Calm     78 % 0.00 in
10:26 56.5 °F 49.7 °F 30.15 in Calm     78 % 0.00 in
10:31 57.0 °F 50.2 °F 30.15 in NW 1.2 mph 1.2 mph 78 % 0.00 in
10:36 57.2 °F 50.7 °F 30.15 in Calm     79 % 0.00 in
10:41 57.8 °F 50.6 °F 30.14 in NW 1.2 mph 1.2 mph 77 % 0.00 in
10:46 58.0 °F 50.5 °F 30.14 in West 1.2 mph 1.2 mph 76 % 0.00 in
10:51 58.3 °F 51.1 °F 30.13 in Calm     77 % 0.00 in
10:56 58.9 °F 51.0 °F 30.13 in Calm     75 % 0.00 in
11:01 59.6 °F 52.4 °F 30.13 in Calm     77 % 0.00 in
11:06 60.5 °F 52.2 °F 30.12 in NNW 1.2 mph 1.2 mph 74 % 0.00 in
11:11 60.5 °F 51.8 °F 30.12 in Calm     73 % 0.00 in
11:16 60.7 °F 52.0 °F 30.12 in Calm     73 % 0.00 in
11:21 60.5 °F 51.8 °F 30.12 in NW 3.5 mph 3.5 mph 73 % 0.00 in
11:27 60.3 °F 51.6 °F 30.12 in Calm     73 % 0.00 in
11:32 60.7 °F 52.7 °F 30.12 in Calm     75 % 0.00 in
11:37 61.3 °F 52.2 °F 30.11 in Calm     72 % 0.00 in
11:42 61.5 °F 52.0 °F 30.11 in WNW 1.2 mph 1.2 mph 71 % 0.00 in
11:47 61.6 °F 52.9 °F 30.10 in Calm     73 % 0.00 in
11:52 61.8 °F 53.1 °F 30.10 in East 1.2 mph 1.2 mph 73 % 0.00 in
11:57 62.3 °F 52.8 °F 30.10 in WNW 2.3 mph 2.3 mph 71 % 0.00 in
12:02 62.3 °F 53.2 °F 30.09 in NNW 1.2 mph 1.2 mph 72 % 0.00 in
12:07 62.9 °F 53.4 °F 30.09 in NW 3.5 mph 3.5 mph 71 % 0.00 in
12:12 63.0 °F 53.4 °F 30.09 in West 1.2 mph 1.2 mph 71 % 0.00 in
12:17 63.2 °F 53.6 °F 30.09 in NW 3.0 mph 3.0 mph 71 % 0.00 in
12:22 63.4 °F 53.8 °F 30.09 in South 2.0 mph 2.0 mph 71 % 0.00 in
12:27 63.9 °F 53.5 °F 30.08 in NNW 2.3 mph 2.3 mph 69 % 0.00 in
12:32 64.1 °F 53.7 °F 30.08 in NNW 2.3 mph 2.3 mph 69 % 0.00 in
12:37 64.2 °F 53.4 °F 30.08 in WNW 2.3 mph 2.3 mph 68 % 0.00 in
12:42 64.1 °F 53.7 °F 30.08 in Calm     69 % 0.00 in
12:47 64.5 °F 53.3 °F 30.08 in NNW 3.5 mph 3.5 mph 67 % 0.00 in
12:52 65.0 °F 54.6 °F 30.07 in Calm     69 % 0.00 in
12:57 65.4 °F 53.7 °F 30.07 in Calm     66 % 0.00 in
13:02 65.9 °F 53.8 °F 30.06 in Calm     65 % 0.00 in
13:07 65.9 °F 53.4 °F 30.06 in NW 2.3 mph 2.3 mph 64 % 0.00 in
13:12 65.7 °F 53.6 °F 30.05 in Calm     65 % 0.00 in
13:17 65.5 °F 52.6 °F 30.05 in NW 2.3 mph 2.3 mph 63 % 0.00 in
13:22 65.4 °F 52.9 °F 30.05 in NNW 2.3 mph 2.3 mph 64 % 0.00 in
13:27 65.3 °F 52.4 °F 30.05 in NW 1.2 mph 1.2 mph 63 % 0.00 in
13:32 65.3 °F 52.8 °F 30.05 in WNW 1.2 mph 1.2 mph 64 % 0.00 in
13:37 65.9 °F 52.9 °F 30.05 in Calm     63 % 0.00 in
13:42 66.2 °F 53.2 °F 30.05 in NNW 1.2 mph 1.2 mph 63 % 0.00 in
13:47 66.8 °F 53.4 °F 30.05 in South 1.2 mph 1.2 mph 62 % 0.00 in
13:52 66.8 °F 52.9 °F 30.04 in WNW 1.2 mph 1.2 mph 61 % 0.00 in
13:57 66.6 °F 53.2 °F 30.04 in WNW 2.3 mph 2.3 mph 62 % 0.00 in
14:02 66.4 °F 52.5 °F 30.04 in NW 1.2 mph 1.2 mph 61 % 0.00 in
14:07 66.5 °F 53.5 °F 30.04 in NW 1.2 mph   63 % 0.00 in
14:12 66.4 °F 53.0 °F 30.04 in WNW 3.5 mph 3.5 mph 62 % 0.00 in
14:17 66.4 °F 52.5 °F 30.04 in North 1.2 mph   61 % 0.00 in
14:22 66.6 °F 53.2 °F 30.03 in Calm     62 % 0.00 in
14:27 66.8 °F 52.9 °F 30.04 in WNW 2.0 mph 2.0 mph 61 % 0.00 in
14:32 66.7 °F 52.4 °F 30.03 in WNW 1.2 mph   60 % 0.00 in
14:37 67.0 °F 53.1 °F 30.03 in Calm     61 % 0.00 in
14:42 67.2 °F 53.3 °F 30.03 in NNW 1.2 mph 1.2 mph 61 % 0.00 in
14:47 67.5 °F 53.1 °F 30.03 in SSW 1.2 mph   60 % 0.00 in
14:52 67.6 °F 52.8 °F 30.03 in NW 2.3 mph 2.3 mph 59 % 0.00 in
14:57 67.3 °F 52.0 °F 30.02 in Calm     58 % 0.00 in
15:02 67.1 °F 52.3 °F 30.02 in West 1.2 mph   59 % 0.00 in
15:07 67.0 °F 52.2 °F 30.02 in NNW 2.3 mph 2.3 mph 59 % 0.00 in
15:12 66.8 °F 52.5 °F 30.03 in Calm     60 % 0.00 in
15:17 66.9 °F 52.6 °F 30.03 in West 2.3 mph 2.3 mph 60 % 0.00 in
15:22 66.7 °F 52.4 °F 30.03 in WNW 1.2 mph 1.2 mph 60 % 0.00 in
15:27 66.7 °F 52.8 °F 30.03 in NNW 1.2 mph 1.2 mph 61 % 0.00 in
15:32 66.8 °F 52.9 °F 30.03 in North 2.0 mph 2.0 mph 61 % 0.00 in
15:37 66.6 °F 51.8 °F 30.03 in Calm     59 % 0.00 in
15:42 66.5 °F 52.6 °F 30.03 in North 1.2 mph 1.2 mph 61 % 0.00 in
15:47 66.3 °F 52.0 °F 30.02 in NW 2.3 mph   60 % 0.00 in
15:52 66.1 °F 52.3 °F 30.02 in Calm   0.1 mph 61 % 0.00 in
15:57 66.0 °F 52.2 °F 30.02 in Calm     61 % 0.00 in
16:02 65.9 °F 52.1 °F 30.02 in Calm     61 % 0.00 in
16:07 65.7 °F 51.9 °F 30.02 in Calm     61 % 0.00 in
16:12 65.6 °F 51.8 °F 30.02 in Calm     61 % 0.00 in
16:17 65.5 °F 52.1 °F 30.02 in Calm     62 % 0.00 in
16:22 65.3 °F 51.9 °F 30.02 in Calm     62 % 0.00 in
16:27 65.2 °F 51.8 °F 30.02 in Calm     62 % 0.00 in
16:32 65.0 °F 52.5 °F 30.02 in Calm     64 % 0.00 in
16:37 64.6 °F 52.6 °F 30.02 in Calm     65 % 0.00 in
16:42 64.4 °F 52.8 °F 30.02 in Calm     66 % 0.00 in
16:47 64.0 °F 52.8 °F 30.02 in Calm     67 % 0.00 in
16:52 63.6 °F 52.8 °F 30.02 in Calm     68 % 0.00 in
16:57 63.1 °F 52.8 °F 30.02 in Calm     69 % 0.00 in
17:02 62.7 °F 52.4 °F 30.02 in Calm     69 % 0.00 in
17:07 62.3 °F 52.8 °F 30.02 in Calm     71 % 0.00 in
17:12 61.8 °F 52.7 °F 30.02 in Calm     72 % 0.00 in
17:17 61.3 °F 52.6 °F 30.02 in Calm     73 % 0.00 in
17:22 60.8 °F 52.5 °F 30.02 in Calm     74 % 0.00 in
17:27 60.4 °F 52.4 °F 30.02 in Calm     75 % 0.00 in
17:32 59.8 °F 52.2 °F 30.02 in Calm     76 % 0.00 in
17:37 59.3 °F 52.1 °F 30.03 in Calm     77 % 0.00 in
17:42 59.1 °F 51.9 °F 30.03 in Calm     77 % 0.00 in
17:47 58.9 °F 51.7 °F 30.03 in Calm     77 % 0.00 in
17:52 58.6 °F 51.4 °F 30.03 in Calm     77 % 0.00 in
17:57 58.1 °F 51.3 °F 30.03 in Calm     78 % 0.00 in
18:02 57.5 °F 51.0 °F 30.04 in Calm     79 % 0.00 in
18:07 57.0 °F 50.9 °F 30.04 in Calm     80 % 0.00 in
18:12 56.5 °F 50.7 °F 30.04 in Calm     81 % 0.00 in
18:17 56.0 °F 50.6 °F 30.04 in Calm     82 % 0.00 in
18:22 55.7 °F 50.3 °F 30.04 in Calm     82 % 0.00 in
18:27 55.4 °F 50.3 °F 30.05 in Calm     83 % 0.00 in
18:32 55.1 °F 50.0 °F 30.05 in Calm     83 % 0.00 in
18:37 54.8 °F 50.1 °F 30.05 in Calm     84 % 0.00 in
18:42 54.6 °F 50.2 °F 30.06 in Calm     85 % 0.00 in
18:47 54.5 °F 50.1 °F 30.06 in Calm     85 % 0.00 in
18:52 54.3 °F 49.9 °F 30.06 in Calm     85 % 0.00 in
18:57 54.2 °F 49.8 °F 30.06 in Calm     85 % 0.00 in
19:02 54.1 °F 50.0 °F 30.06 in Calm     86 % 0.00 in
19:07 53.9 °F 49.5 °F 30.06 in Calm     85 % 0.00 in
19:12 53.7 °F 49.6 °F 30.07 in Calm     86 % 0.00 in
19:18 53.6 °F 49.5 °F 30.07 in Calm     86 % 0.00 in
19:23 53.6 °F 49.5 °F 30.07 in Calm     86 % 0.00 in
19:28 53.3 °F 49.2 °F 30.07 in Calm     86 % 0.00 in
19:33 53.3 °F 49.2 °F 30.06 in Calm     86 % 0.00 in
19:38 53.3 °F 49.2 °F 30.06 in Calm     86 % 0.00 in
19:43 53.2 °F 48.8 °F 30.06 in Calm     85 % 0.00 in
19:48 52.9 °F 48.5 °F 30.07 in Calm     85 % 0.00 in
19:53 52.6 °F 48.5 °F 30.06 in Calm     86 % 0.00 in
19:58 52.3 °F 48.2 °F 30.06 in Calm     86 % 0.00 in
20:03 52.0 °F 48.3 °F 30.06 in Calm     87 % 0.00 in
20:08 52.0 °F 48.6 °F 30.06 in Calm     88 % 0.00 in
20:13 52.3 °F 48.9 °F 30.06 in Calm     88 % 0.00 in
20:18 52.5 °F 49.0 °F 30.06 in Calm     88 % 0.00 in
20:23 52.2 °F 48.4 °F 30.06 in Calm     87 % 0.00 in
20:28 51.8 °F 48.1 °F 30.07 in Calm     87 % 0.00 in
20:33 51.4 °F 47.7 °F 30.07 in Calm     87 % 0.00 in
20:38 51.3 °F 47.9 °F 30.07 in Calm     88 % 0.00 in
20:43 51.3 °F 47.9 °F 30.07 in Calm     88 % 0.00 in
20:48 51.0 °F 47.6 °F 30.07 in Calm     88 % 0.00 in
20:53 50.6 °F 47.2 °F 30.07 in Calm     88 % 0.00 in
20:58 50.1 °F 46.4 °F 30.08 in Calm     87 % 0.00 in
21:03 49.7 °F 46.0 °F 30.08 in Calm     87 % 0.00 in
21:08 49.4 °F 46.0 °F 30.08 in Calm     88 % 0.00 in
21:13 49.2 °F 46.1 °F 30.08 in Calm     89 % 0.00 in
21:18 49.1 °F 46.0 °F 30.08 in Calm     89 % 0.00 in
21:23 49.1 °F 46.3 °F 30.08 in Calm     90 % 0.00 in
21:28 48.9 °F 45.8 °F 30.08 in Calm     89 % 0.00 in
21:33 48.7 °F 45.9 °F 30.08 in Calm     90 % 0.00 in
21:38 48.7 °F 46.2 °F 30.09 in Calm     91 % 0.00 in
21:43 48.6 °F 45.8 °F 30.09 in Calm     90 % 0.00 in
21:48 48.6 °F 46.1 °F 30.09 in Calm     91 % 0.00 in
21:53 48.9 °F 46.7 °F 30.09 in Calm     92 % 0.00 in
21:58 48.9 °F 46.4 °F 30.10 in Calm     91 % 0.00 in
22:03 48.8 °F 46.3 °F 30.10 in Calm     91 % 0.00 in
22:08 48.8 °F 46.6 °F 30.10 in Calm     92 % 0.00 in
22:13 48.8 °F 46.3 °F 30.10 in Calm     91 % 0.00 in
22:18 48.7 °F 46.2 °F 30.10 in Calm     91 % 0.00 in
22:24 48.6 °F 46.1 °F 30.10 in Calm     91 % 0.00 in
22:29 48.6 °F 46.1 °F 30.10 in Calm     91 % 0.00 in
22:34 48.0 °F 45.2 °F 30.10 in Calm     90 % 0.00 in
22:39 47.5 °F 44.7 °F 30.10 in Calm     90 % 0.00 in
22:44 47.0 °F 43.9 °F 30.10 in Calm     89 % 0.00 in
22:49 46.9 °F 44.4 °F 30.10 in Calm     91 % 0.00 in
22:54 46.7 °F 44.2 °F 30.10 in Calm     91 % 0.00 in
22:59 46.6 °F 44.4 °F 30.10 in Calm     92 % 0.00 in
23:04 46.6 °F 44.4 °F 30.10 in Calm     92 % 0.00 in
23:09 46.5 °F 44.3 °F 30.10 in Calm     92 % 0.00 in
23:14 46.3 °F 44.1 °F 30.10 in Calm     92 % 0.00 in
23:19 46.1 °F 43.9 °F 30.10 in Calm     92 % 0.00 in
23:24 45.9 °F 43.7 °F 30.10 in Calm     92 % 0.00 in
23:30 45.8 °F 43.6 °F 30.10 in Calm     92 % 0.00 in
23:35 45.7 °F 43.5 °F 30.10 in Calm     92 % 0.00 in
23:40 45.4 °F 42.9 °F 30.10 in Calm     91 % 0.00 in
23:45 45.4 °F 43.2 °F 30.10 in Calm     92 % 0.00 in
23:50 45.6 °F 43.7 °F 30.10 in Calm     93 % 0.00 in
23:55 45.5 °F 43.3 °F 30.10 in Calm     92 % 0.00 in
Park Place, Exeter, Tulare County, California, USA
Compliments of Weather Underground - 2.75 mb